ITR weather

Kit Carson County Airport
Burlington, Colorado, United States

Public forecast

Using degrees Fahrenheit for public forecast. Weather courtesy of forecast.io.

Current aviation weather report (METAR) for Kit Carson County Airport

Retrieved 2019/10/18 13:53 UTC (54 minutes ago):

KITR 181353Z AUTO 24005KT 9SM CLR 09/M08 A2959 RMK AO2 SLP986 T00891083

Closest aviation forecast (TAF) to Kit Carson County Airport

Closest forecast is Renner Field-Goodland Municipal Airport, 28.3 nm (52.4 km) ENE. Retrieved 2019/10/18 12:34 UTC (2 hours ago):

TAF KGLD 181132Z 1812/1912 24012KT P6SM SKC FM181700 31010G20KT P6SM SCT200 FM182000 34022G30KT 6SM BLDU OVC200 FM190100 36012KT P6SM BKN200